Terminal Aerodrome Forecast
Issued by NWS Rapid City, SD

Home | Current Version | Previous Version | Graphics & Text | Print | Product List | Glossary On
Versions: 1 2 3 4 5 6 7 8 9 10 11 12 13 14 15 16 17 18 19 20 21 22 23
000
FTUS43 KUNR 291400 AAB
TAFRAP
TAF AMD
KRAP 291457Z 2915/3012 32026G36KT P6SM SCT100 BKN200
     FM291700 34016KT P6SM SCT100
     FM300100 VRB04KT P6SM SKC=

USA.gov is the U.S. government's official web portal to all federal, state and local government web resources and services.